Time;durP1;ratioP1;P1;durP2;ratioP2;P2;SDS_P1;SDS_P2;PMS_P1;PMS_P2;Temp;Humidity;BMP_temperature;BMP_pressure;BME280_temperature;BME280_humidity;BME280_pressure;Samples;Min_cycle;Max_cycle;Signal;HPM_P1;HPM_P2
2022/01/09 00:01:11;;;;;;;;;105.00;76.50;;;;;-2.92;97.85;98946.13;6281303;20;3552373;-42
2022/01/09 00:03:41;;;;;;;;;96.33;70.00;;;;;-2.89;97.74;98940.81;6314868;20;2899283;-43
2022/01/09 00:06:11;;;;;;;;;107.67;76.00;;;;;-2.90;97.76;98939.09;6313239;20;3678380;-41
2022/01/09 00:08:40;;;;;;;;;105.33;75.33;;;;;-3.09;98.57;98948.19;6282485;20;3657512;-42
2022/01/09 00:11:15;;;;;;;;;102.67;75.67;;;;;-2.92;98.69;98926.88;6314684;20;3679394;-42
2022/01/09 00:13:47;;;;;;;;;101.67;76.00;;;;;-2.87;98.18;98931.16;6280417;20;3666028;-41
2022/01/09 00:16:17;;;;;;;;;96.33;72.00;;;;;-2.90;98.38;98930.31;6314798;20;3670048;-41
2022/01/09 00:18:48;;;;;;;;;102.33;72.67;;;;;-2.81;97.61;98934.56;6313683;20;3679449;-41
2022/01/09 00:21:17;;;;;;;;;96.00;73.00;;;;;-2.94;98.02;98926.91;6310879;20;2606249;-41
2022/01/09 00:23:46;;;;;;;;;97.00;72.00;;;;;-3.01;98.71;98919.16;6281877;20;3664950;-41
2022/01/09 00:26:16;;;;;;;;;97.33;71.67;;;;;-3.14;99.10;98914.13;6310634;20;3661828;-40
2022/01/09 00:28:46;;;;;;;;;106.33;76.33;;;;;-3.40;99.78;98906.75;6314785;20;3675213;-41
2022/01/09 00:31:16;;;;;;;;;111.67;77.33;;;;;-3.57;100.00;98911.44;6279633;20;3683584;-43
2022/01/09 00:33:46;;;;;;;;;103.33;77.33;;;;;-3.60;100.00;98904.47;6315094;20;3669133;-40
2022/01/09 00:36:15;;;;;;;;;102.67;77.00;;;;;-3.60;100.00;98901.88;6314603;20;3674167;-41
2022/01/09 00:38:45;;;;;;;;;106.33;77.33;;;;;-3.53;100.00;98900.88;6312694;20;3670061;-41
2022/01/09 00:41:15;;;;;;;;;101.00;74.00;;;;;-3.44;100.00;98906.84;6313438;20;3671067;-41
2022/01/09 00:43:45;;;;;;;;;105.67;76.00;;;;;-3.60;100.00;98903.63;6314464;20;3676345;-42
2022/01/09 00:46:15;;;;;;;;;110.00;82.00;;;;;-3.49;100.00;98893.81;6278146;20;3689791;-41
2022/01/09 00:48:44;;;;;;;;;105.67;79.67;;;;;-3.47;100.00;98892.03;6281653;20;3682540;-42
2022/01/09 00:51:14;;;;;;;;;110.00;83.00;;;;;-3.46;100.00;98888.50;6280772;20;3686035;-44
2022/01/09 00:53:44;;;;;;;;;110.00;82.00;;;;;-3.83;100.00;98886.50;6314087;20;3680559;-42
2022/01/09 00:56:14;;;;;;;;;108.33;85.67;;;;;-3.84;100.00;98881.31;6280385;20;3689870;-43
2022/01/09 00:58:44;;;;;;;;;101.00;72.00;;;;;-4.12;100.00;98879.09;6311982;20;3573132;-41
2022/01/09 01:01:13;;;;;;;;;106.33;82.00;;;;;-4.23;100.00;98876.66;6313047;20;3674236;-41
2022/01/09 01:03:43;;;;;;;;;113.33;88.33;;;;;-4.08;100.00;98872.06;6313033;20;3701286;-43
2022/01/09 01:06:13;;;;;;;;;114.00;88.00;;;;;-4.12;100.00;98870.38;6314208;20;3694094;-41
2022/01/09 01:08:43;;;;;;;;;115.67;83.00;;;;;-4.26;100.00;98854.88;6279975;20;3690982;-41
2022/01/09 01:11:13;;;;;;;;;118.67;85.00;;;;;-4.37;100.00;98860.28;6278147;20;3688751;-41
2022/01/09 01:13:42;;;;;;;;;113.67;79.67;;;;;-4.61;100.00;98858.84;6280054;20;3686669;-41
2022/01/09 01:16:13;;;;;;;;;110.33;81.33;;;;;-4.61;100.00;98858.84;6311631;20;3678361;-41
2022/01/09 01:18:44;;;;;;;;;118.33;84.67;;;;;-4.66;100.00;98853.72;6311197;20;3690831;-41
2022/01/09 01:21:14;;;;;;;;;114.33;82.67;;;;;-4.55;100.00;98857.94;6278879;20;3691887;-43
2022/01/09 01:23:44;;;;;;;;;113.33;78.00;;;;;-4.41;100.00;98850.72;6281522;20;3679382;-41
2022/01/09 01:26:14;;;;;;;;;107.67;80.00;;;;;-4.69;100.00;98848.47;6311952;20;3672098;-41
2022/01/09 01:28:43;;;;;;;;;110.00;84.00;;;;;-4.69;100.00;98838.00;6313975;20;3676257;-41
2022/01/09 01:31:13;;;;;;;;;110.00;76.00;;;;;-4.53;100.00;98832.56;6274745;20;3678386;-44
2022/01/09 01:33:43;;;;;;;;;107.33;78.00;;;;;-4.49;100.00;98826.41;6312107;20;3678332;-43
2022/01/09 01:36:13;;;;;;;;;108.00;78.00;;;;;-4.96;100.00;98820.94;6309511;20;3679802;-42
2022/01/09 01:38:44;;;;;;;;;100.00;73.00;;;;;-4.77;100.00;98821.53;6309070;20;3680452;-41
2022/01/09 01:41:13;;;;;;;;;88.50;69.00;;;;;-4.79;100.00;98815.50;6311497;20;2871090;-41
2022/01/09 01:43:43;;;;;;;;;102.67;74.33;;;;;-4.56;100.00;98815.13;6280978;20;2920128;-43
2022/01/09 01:46:13;;;;;;;;;97.33;73.33;;;;;-4.78;100.00;98817.22;6312432;20;3661688;-42
2022/01/09 01:48:43;;;;;;;;;104.33;75.67;;;;;-4.86;100.00;98817.31;6311412;20;3670009;-43
2022/01/09 01:51:12;;;;;;;;;99.67;71.33;;;;;-5.10;100.00;98808.03;6311563;20;3679382;-41
2022/01/09 01:53:42;;;;;;;;;97.67;72.33;;;;;-4.97;100.00;98800.03;6310397;20;3659603;-42
2022/01/09 01:56:19;;;;;;;;;101.00;72.00;;;;;-5.18;100.00;98794.19;6310213;20;3675211;-42
2022/01/09 01:58:50;;;;;;;;;93.67;69.33;;;;;-5.08;100.00;98795.81;6310202;20;3654430;-41
2022/01/09 02:01:20;;;;;;;;;100.67;73.33;;;;;-4.77;100.00;98784.88;6310984;20;3693016;-42
2022/01/09 02:03:50;;;;;;;;;91.00;67.33;;;;;-5.20;100.00;98782.88;6312226;20;2893137;-41
2022/01/09 02:06:20;;;;;;;;;100.33;72.33;;;;;-5.42;100.00;98779.66;6311180;20;3684640;-41
2022/01/09 02:08:50;;;;;;;;;94.67;68.33;;;;;-5.43;100.00;98782.28;6308060;20;3656520;-41
2022/01/09 02:11:20;;;;;;;;;105.00;72.67;;;;;-5.33;100.00;98781.28;6308654;20;3682573;-41
2022/01/09 02:13:49;;;;;;;;;107.33;75.67;;;;;-5.36;100.00;98774.34;6309191;20;3662770;-41
2022/01/09 02:16:19;;;;;;;;;98.67;70.67;;;;;-5.48;100.00;98765.78;6312257;20;2894270;-42
2022/01/09 02:18:49;;;;;;;;;96.67;70.67;;;;;-5.64;100.00;98773.81;6309061;20;2898219;-41
2022/01/09 02:21:19;;;;;;;;;99.67;69.33;;;;;-5.63;100.00;98767.72;6311049;20;3675337;-41
2022/01/09 02:23:49;;;;;;;;;104.33;74.67;;;;;-5.58;100.00;98757.16;6312196;20;3683723;-41
2022/01/09 02:26:24;;;;;;;;;106.00;73.33;;;;;-5.65;100.00;98756.41;6311280;20;3679476;-42
2022/01/09 02:28:54;;;;;;;;;95.33;70.33;;;;;-5.45;100.00;98763.13;6311563;20;3661766;-41
2022/01/09 02:31:24;;;;;;;;;94.33;71.33;;;;;-5.45;100.00;98763.13;6309989;20;2900356;-41
2022/01/09 02:33:53;;;;;;;;;97.67;70.00;;;;;-5.05;100.00;98760.00;6310783;20;3663789;-44
2022/01/09 02:36:23;;;;;;;;;99.33;70.00;;;;;-5.39;100.00;98758.69;6309759;20;3657629;-41
2022/01/09 02:38:53;;;;;;;;;86.33;62.33;;;;;-5.19;100.00;98758.44;6308326;20;2894580;-41
2022/01/09 02:41:22;;;;;;;;;99.67;72.00;;;;;-5.63;100.00;98753.78;6310027;20;2898348;-41
2022/01/09 02:43:52;;;;;;;;;95.33;69.67;;;;;-5.80;100.00;98746.09;6310964;20;3645111;-42
2022/01/09 02:48:57;;;;;;;;;93.00;69.33;;;;;-5.66;100.00;98753.78;6310235;20;2896370;-46
2022/01/09 02:51:27;;;;;;;;;89.00;69.00;;;;;-5.59;100.00;98740.63;6309911;20;2894102;-41
2022/01/09 02:55:03;;;;;;;;;95.00;67.33;;;;;-5.67;100.00;98737.25;6308938;20;2909830;-41
2022/01/09 02:56:46;;;;;;;;;96.67;69.00;;;;;-5.25;100.00;98734.97;6310897;20;3650237;-42
2022/01/09 02:59:16;;;;;;;;;101.67;72.00;;;;;-5.60;100.00;98728.44;6310387;20;3660624;-41
2022/01/09 03:01:46;;;;;;;;;93.67;68.00;;;;;-5.82;100.00;98724.34;6309526;20;3658577;-41
2022/01/09 03:04:16;;;;;;;;;97.67;72.00;;;;;-5.69;100.00;98715.47;6308878;20;3662724;-40
2022/01/09 03:06:44;;;;;;;;;86.00;63.33;;;;;-5.79;100.00;98721.72;6306389;20;2889879;-42
2022/01/09 03:09:14;;;;;;;;;99.00;72.33;;;;;-5.51;100.00;98711.75;6310809;20;2911802;-40
2022/01/09 03:11:47;;;;;;;;;97.00;71.33;;;;;-5.50;100.00;98718.75;6307566;20;3631448;-40
2022/01/09 03:14:16;;;;;;;;;100.33;70.67;;;;;-5.47;100.00;98713.47;6311329;20;3665836;-43
2022/01/09 03:16:46;;;;;;;;;97.67;71.33;;;;;-5.57;100.00;98723.19;6310256;20;3671054;-43
2022/01/09 03:19:15;;;;;;;;;92.33;66.67;;;;;-5.56;100.00;98709.19;6310586;20;3654956;-41
2022/01/09 03:21:45;;;;;;;;;94.00;70.67;;;;;-5.67;100.00;98716.31;6315506;20;2901320;-41
2022/01/09 03:24:15;;;;;;;;;94.33;69.33;;;;;-5.83;100.00;98725.22;6317925;20;3667908;-41
2022/01/09 03:26:44;;;;;;;;;93.33;63.33;;;;;-5.95;100.00;98715.78;6316008;20;3671160;-41
2022/01/09 03:29:14;;;;;;;;;92.33;67.00;;;;;-5.96;100.00;98725.41;6315304;20;2904492;-40
2022/01/09 03:31:44;;;;;;;;;91.67;66.33;;;;;-5.83;100.00;98722.63;6313978;20;2895110;-41
2022/01/09 03:34:12;;;;;;;;;44.67;34.00;;;;;-5.84;100.00;98728.75;6316882;20;3548151;-41
2022/01/09 03:36:42;;;;;;;;;95.83;66.50;;;;;-6.16;100.00;98721.25;6310989;20;3664936;-41
2022/01/09 03:39:11;;;;;;;;;84.50;65.00;;;;;-6.23;100.00;98720.47;6315893;20;2878397;-43
2022/01/09 03:41:40;;;;;;;;;93.33;67.33;;;;;-6.35;100.00;98711.00;6283065;20;2900399;-41
2022/01/09 03:44:10;;;;;;;;;87.33;63.00;;;;;-6.05;100.00;98717.66;6314721;20;3657548;-41
2022/01/09 03:46:40;;;;;;;;;88.67;61.33;;;;;-6.25;100.00;98717.00;6316555;20;2901410;-40
2022/01/09 03:49:08;;;;;;;;;81.50;64.00;;;;;-6.34;100.00;98727.56;6312199;20;2877360;-40
2022/01/09 03:51:38;;;;;;;;;78.50;59.50;;;;;-6.32;100.00;98715.31;6278472;20;2502386;-42
2022/01/09 03:54:07;;;;;;;;;91.67;66.00;;;;;-6.16;100.00;98713.41;6284339;20;2902440;-40
2022/01/09 03:56:37;;;;;;;;;96.67;68.33;;;;;-6.08;100.00;98720.31;6315660;20;3659592;-41
2022/01/09 03:59:07;;;;;;;;;90.00;66.67;;;;;-6.43;100.00;98713.66;6315495;20;3659613;-43
2022/01/09 04:01:36;;;;;;;;;86.33;66.33;;;;;-6.51;100.00;98715.50;6315067;20;2894024;-42
2022/01/09 04:04:06;;;;;;;;;93.33;66.67;;;;;-6.41;100.00;98705.84;6314551;20;2906969;-41
2022/01/09 04:06:39;;;;;;;;;99.00;69.67;;;;;-6.30;100.00;98703.13;6314895;20;2913939;-41
2022/01/09 04:09:17;;;;;;;;;90.00;67.67;;;;;-6.27;100.00;98703.09;6312660;20;3653384;-41
2022/01/09 04:11:49;;;;;;;;;96.67;71.33;;;;;-6.08;100.00;98704.66;6313322;20;2908734;-41
2022/01/09 04:14:18;;;;;;;;;97.00;67.33;;;;;-6.47;100.00;98696.31;6311544;20;3660624;-43
2022/01/09 04:16:48;;;;;;;;;99.67;70.33;;;;;-6.49;100.00;98692.84;6312282;20;3656775;-43
2022/01/09 04:19:18;;;;;;;;;99.00;74.67;;;;;-6.45;100.00;98694.56;6313940;20;3667275;-41
2022/01/09 04:21:47;;;;;;;;;107.33;79.00;;;;;-6.65;100.00;98699.09;6312449;20;2902402;-42
2022/01/09 04:24:17;;;;;;;;;107.00;74.33;;;;;-6.25;100.00;98701.31;6314267;20;3685782;-42
2022/01/09 04:26:47;;;;;;;;;118.00;92.33;;;;;-6.74;100.00;98694.81;6314724;20;3696060;-41
2022/01/09 04:29:16;;;;;;;;;114.00;81.67;;;;;-6.65;100.00;98701.69;6280626;20;3688748;-41
2022/01/09 04:31:46;;;;;;;;;101.75;67.25;;;;;-6.75;100.00;98690.47;6277072;20;4414219;-41
2022/01/09 04:34:16;;;;;;;;;104.83;76.67;;;;;-6.75;100.00;98693.06;6312466;20;3674374;-41
2022/01/09 04:36:45;;;;;;;;;111.00;78.67;;;;;-6.82;100.00;98688.78;6315289;20;3684579;-41
2022/01/09 04:39:15;;;;;;;;;100.83;74.00;;;;;-6.95;100.00;98685.44;6277674;20;4443953;-42
2022/01/09 04:41:45;;;;;;;;;95.00;72.00;;;;;-6.90;100.00;98685.38;6311229;20;3658540;-42
2022/01/09 04:44:14;;;;;;;;;101.67;68.00;;;;;-6.67;100.00;98688.66;6312663;20;3670005;-40
2022/01/09 04:46:51;;;;;;;;;101.33;73.00;;;;;-6.62;100.00;98691.22;6314237;20;3672183;-41
2022/01/09 04:49:24;;;;;;;;;99.67;71.33;;;;;-6.70;100.00;98690.44;6311813;20;3671126;-41
2022/01/09 04:51:55;;;;;;;;;107.33;77.33;;;;;-6.91;100.00;98692.34;6312481;20;3680510;-41
2022/01/09 04:54:25;;;;;;;;;102.67;73.67;;;;;-7.08;100.00;98694.22;6314480;20;3677350;-40
2022/01/09 04:56:55;;;;;;;;;101.00;75.67;;;;;-7.38;100.00;98687.44;6312866;20;3670006;-40
2022/01/09 04:59:25;;;;;;;;;109.00;76.00;;;;;-7.44;100.00;98684.88;6314922;20;3668983;-41
2022/01/09 05:01:55;;;;;;;;;134.00;97.33;;;;;-7.57;100.00;98686.69;6312131;20;3705448;-41
2022/01/09 05:04:25;;;;;;;;;104.67;79.67;;;;;-7.59;100.00;98683.22;6282881;20;3663755;-41
2022/01/09 05:06:55;;;;;;;;;240.67;187.67;;;;;-7.52;100.00;98679.72;6314522;20;3722070;-42
2022/01/09 05:09:24;;;;;;;;;117.00;85.33;;;;;-7.42;100.00;98678.78;6278034;20;3686672;-41
2022/01/09 05:11:53;;;;;;;;;81.00;61.33;;;;;-7.57;100.00;98671.03;6274884;20;2897236;-40
2022/01/09 05:14:23;;;;;;;;;83.67;59.00;;;;;-7.46;100.00;98664.03;6310156;20;3657551;-40
2022/01/09 05:16:53;;;;;;;;;91.67;66.67;;;;;-7.30;100.00;98676.06;6315296;20;3659638;-40
2022/01/09 05:19:28;;;;;;;;;90.40;64.80;;;;;-7.21;100.00;98676.88;6310713;20;3662751;-41
2022/01/09 05:21:57;;;;;;;;;94.20;68.80;;;;;-7.39;100.00;98665.72;6279341;20;3665866;-41
2022/01/09 05:24:28;;;;;;;;;99.17;69.33;;;;;-7.83;100.00;98664.22;6277651;20;4441848;-41
2022/01/09 05:26:57;;;;;;;;;99.33;70.00;;;;;-7.33;100.00;98664.81;6308247;20;4445013;-40
2022/01/09 05:29:27;;;;;;;;;91.33;68.83;;;;;-7.42;100.00;98680.53;6308571;20;3665975;-41
2022/01/09 05:31:56;;;;;;;;;80.80;58.40;;;;;-7.18;100.00;98672.53;6308979;20;3651302;-42
2022/01/09 05:34:25;;;;;;;;;87.33;61.00;;;;;-7.54;100.00;98671.03;6280012;20;3660639;-41
2022/01/09 05:36:54;;;;;;;;;88.67;66.00;;;;;-7.54;100.00;98671.03;6312861;20;3664846;-42
2022/01/09 05:39:23;;;;;;;;;74.20;56.00;;;;;-7.22;100.00;98675.16;6310774;20;3624338;-41
2022/01/09 05:41:51;;;;;;;;;80.50;59.00;;;;;-7.15;100.00;98684.69;6272298;20;2502810;-43
2022/01/09 05:44:20;;;;;;;;;78.50;57.50;;;;;-7.38;100.00;98672.66;6276012;20;2491944;-40
2022/01/09 05:46:48;;;;;;;;;78.00;56.20;;;;;-7.58;100.00;98677.09;6279406;20;3651328;-41
2022/01/09 05:49:18;;;;;;;;;76.33;55.67;;;;;-7.58;100.00;98680.59;6279874;20;2894025;-42
2022/01/09 05:51:48;;;;;;;;;114.33;81.67;;;;;-7.29;100.00;98677.81;6309505;20;3688762;-40
2022/01/09 05:54:18;;;;;;;;;115.33;88.00;;;;;-7.70;100.00;98672.84;6277919;20;3697082;-41
2022/01/09 05:56:48;;;;;;;;;95.67;67.67;;;;;-7.94;100.00;98671.22;6312467;20;3665828;-42
2022/01/09 05:59:18;;;;;;;;;95.20;68.20;;;;;-8.05;100.00;98684.28;6309653;20;3657513;-42
2022/01/09 06:01:47;;;;;;;;;79.40;61.40;;;;;-8.36;100.00;98675.69;6276111;20;3640866;-42
2022/01/09 06:04:16;;;;;;;;;77.40;53.20;;;;;-8.30;100.00;98687.81;6279143;20;3639994;-41
2022/01/09 06:06:46;;;;;;;;;77.50;54.50;;;;;-7.95;100.00;98693.78;6280746;20;2888263;-40
2022/01/09 06:09:15;;;;;;;;;80.00;61.00;;;;;-8.01;100.00;98685.97;6280248;20;2891939;-41
2022/01/09 06:11:44;;;;;;;;;88.67;59.33;;;;;-7.98;100.00;98674.69;6278669;20;2914932;-41
2022/01/09 06:14:13;;;;;;;;;73.00;57.00;;;;;-7.86;100.00;98682.47;6308303;20;2500271;-41
2022/01/09 06:16:42;;;;;;;;;84.00;63.00;;;;;-7.92;100.00;98682.50;6281231;20;2908725;-41
2022/01/09 06:19:11;;;;;;;;;78.00;60.20;;;;;-7.86;100.00;98681.59;6305737;20;3632659;-40
2022/01/09 06:21:41;;;;;;;;;93.50;63.17;;;;;-7.98;100.00;98686.00;6276457;20;3667024;-40
2022/01/09 06:24:11;;;;;;;;;91.67;60.17;;;;;-7.85;100.00;98688.53;6308031;20;3676394;-40
2022/01/09 06:26:40;;;;;;;;;95.00;67.67;;;;;-8.05;100.00;98693.84;6309238;20;3672251;-40
2022/01/09 06:29:12;;;;;;;;;93.67;66.67;;;;;-7.89;100.00;98685.09;6308736;20;3658980;-42
2022/01/09 06:31:41;;;;;;;;;92.00;68.60;;;;;-7.66;100.00;98689.31;6309060;20;3665905;-40
2022/01/09 06:34:11;;;;;;;;;100.00;75.00;;;;;-8.06;100.00;98692.94;6279317;20;3666936;-43
2022/01/09 06:36:41;;;;;;;;;89.00;62.67;;;;;-8.30;100.00;98682.59;6307230;20;2899630;-46
2022/01/09 06:39:11;;;;;;;;;100.33;73.33;;;;;-7.93;100.00;98682.50;6311324;20;3674231;-41
2022/01/09 06:41:40;;;;;;;;;89.00;68.33;;;;;-8.09;100.00;98689.50;6308481;20;2902445;-42
2022/01/09 06:44:09;;;;;;;;;80.20;62.40;;;;;-7.89;100.00;98689.44;6307168;20;3641950;-40
2022/01/09 06:46:39;;;;;;;;;98.33;70.67;;;;;-8.17;100.00;98682.56;6279720;20;3668979;-42
2022/01/09 06:49:08;;;;;;;;;84.40;62.00;;;;;-8.20;100.00;98682.56;6310653;20;3638789;-42
2022/01/09 06:51:36;;;;;;;;;85.00;60.00;;;;;-8.19;100.00;98679.13;6278406;20;2787875;-42
2022/01/09 06:54:05;;;;;;;;;90.00;65.33;;;;;-8.06;100.00;98676.47;6307030;20;3678424;-40
2022/01/09 06:56:35;;;;;;;;;83.00;59.67;;;;;-7.68;100.00;98678.06;6316165;20;2894139;-40
2022/01/09 06:59:04;;;;;;;;;99.50;69.17;;;;;-7.73;100.00;98678.06;6313572;20;3676397;-43
2022/01/09 07:01:34;;;;;;;;;94.33;68.33;;;;;-7.46;100.00;98684.88;6315075;20;3664847;-41
2022/01/09 07:04:04;;;;;;;;;99.17;66.83;;;;;-7.33;100.00;98670.88;6312902;20;3661802;-40
2022/01/09 07:06:35;;;;;;;;;98.50;71.67;;;;;-7.25;100.00;98677.81;6314812;20;4434758;-42
2022/01/09 07:09:05;;;;;;;;;111.67;78.00;;;;;-7.36;100.00;98673.53;6314823;20;3695027;-40
2022/01/09 07:11:35;;;;;;;;;105.00;76.00;;;;;-7.22;100.00;98675.16;6278480;20;3674497;-40
2022/01/09 07:14:05;;;;;;;;;109.00;78.67;;;;;-7.24;100.00;98680.41;6316259;20;3695768;-42
2022/01/09 07:16:35;;;;;;;;;113.33;89.67;;;;;-6.93;100.00;98691.47;6314381;20;3690870;-41
2022/01/09 07:19:05;;;;;;;;;113.67;85.00;;;;;-6.92;100.00;98690.63;6315955;20;3699185;-40
2022/01/09 07:21:34;;;;;;;;;112.00;82.33;;;;;-6.91;100.00;98688.88;6282197;20;3682635;-41
2022/01/09 07:24:04;;;;;;;;;127.00;96.67;;;;;-6.57;100.00;98699.88;6283149;20;3706565;-41
2022/01/09 07:26:37;;;;;;;;;113.50;83.17;;;;;-6.44;100.00;98693.66;6277520;20;3682604;-41
2022/01/09 07:29:08;;;;;;;;;136.50;102.75;;;;;-6.50;100.00;98696.34;6315919;20;3722216;-43
2022/01/09 07:31:38;;;;;;;;;111.67;79.00;;;;;-6.60;100.00;98688.63;6278843;20;3680428;-40
2022/01/09 07:34:08;;;;;;;;;108.67;77.33;;;;;-6.39;100.00;98684.94;6315982;20;3660667;-40
2022/01/09 07:36:37;;;;;;;;;106.67;77.00;;;;;-6.32;100.00;98686.59;6314909;20;3676277;-41
2022/01/09 07:39:07;;;;;;;;;103.00;76.00;;;;;-6.17;100.00;98686.44;6314721;20;3666268;-40
2022/01/09 07:41:38;;;;;;;;;96.33;69.67;;;;;-6.13;100.00;98685.53;6312825;20;3664972;-41
2022/01/09 07:44:08;;;;;;;;;115.00;84.67;;;;;-6.82;100.00;98677.47;6316640;20;3690830;-40
2022/01/09 07:46:38;;;;;;;;;114.67;79.67;;;;;-6.63;100.00;98673.84;6285518;20;3697150;-42
2022/01/09 07:49:07;;;;;;;;;105.83;74.00;;;;;-6.26;100.00;98670.88;6278450;20;3681606;-41
2022/01/09 07:51:37;;;;;;;;;107.67;77.67;;;;;-6.11;100.00;98675.91;6313301;20;3682580;-42
2022/01/09 07:54:21;;;;;;;;;124.67;97.67;;;;;-6.04;100.00;98664.53;6282491;20;3708675;-41
2022/01/09 07:56:51;;;;;;;;;116.33;88.67;;;;;-6.13;100.00;98669.88;6279685;20;3697166;-40
2022/01/09 07:59:20;;;;;;;;;123.33;94.00;;;;;-6.18;100.00;98662.06;6281635;20;3712755;-41
2022/01/09 08:01:50;;;;;;;;;30.50;0.00;;;;;-6.06;100.00;98645.38;6282437;20;2802435;-41
2022/01/09 08:04:20;;;;;;;;;120.67;88.00;;;;;-5.78;100.00;98645.03;6287026;20;3705501;-44
2022/01/09 08:06:50;;;;;;;;;103.67;80.67;;;;;-5.69;100.00;98651.88;6286287;20;3654416;-41
2022/01/09 08:09:19;;;;;;;;;137.33;103.67;;;;;-5.16;100.00;98658.97;6320334;20;3724156;-41
2022/01/09 08:11:49;;;;;;;;;119.67;96.00;;;;;-4.83;99.18;98667.19;6282756;20;3694247;-42
2022/01/09 08:14:19;;;;;;;;;127.33;99.67;;;;;-4.90;99.14;98668.16;6283759;20;3713776;-41
2022/01/09 08:16:49;;;;;;;;;126.67;92.67;;;;;-4.88;99.84;98667.25;6286804;20;3711895;-42
2022/01/09 08:19:18;;;;;;;;;130.67;101.00;;;;;-4.39;99.02;98669.94;6286999;20;3708572;-43
2022/01/09 08:21:48;;;;;;;;;126.67;95.67;;;;;-4.13;98.15;98672.06;6283352;20;3682615;-42
2022/01/09 08:24:18;;;;;;;;;112.67;84.33;;;;;-4.13;98.46;98672.94;6285410;20;3677328;-41
2022/01/09 08:26:47;;;;;;;;;109.67;79.00;;;;;-4.19;98.61;98680.91;6317956;20;3679525;-42
2022/01/09 08:29:17;;;;;;;;;101.67;73.00;;;;;-3.73;97.64;98679.19;6318858;20;3688834;-42
2022/01/09 08:31:48;;;;;;;;;104.00;76.00;;;;;-3.54;96.88;98683.13;6315035;20;3550221;-43
2022/01/09 08:34:18;;;;;;;;;107.00;75.33;;;;;-3.42;96.88;98677.63;6315656;20;3673170;-40
2022/01/09 08:36:47;;;;;;;;;99.00;73.67;;;;;-3.26;96.10;98672.91;6316301;20;3649201;-42
2022/01/09 08:39:18;;;;;;;;;101.00;77.33;;;;;-3.35;96.70;98679.22;6316936;20;3661740;-41
2022/01/09 08:41:48;;;;;;;;;115.33;88.33;;;;;-3.13;95.82;98684.00;6316907;20;3681464;-43
2022/01/09 08:44:17;;;;;;;;;137.67;103.33;;;;;-2.93;96.37;98675.66;6283485;20;3716945;-43
2022/01/09 08:46:47;;;;;;;;;125.67;104.67;;;;;-2.47;93.46;98675.41;6285582;20;3677285;-43
2022/01/09 08:49:17;;;;;;;;;175.33;137.33;;;;;-2.93;96.68;98680.91;6283715;20;3690941;-40
2022/01/09 08:51:48;;;;;;;;;144.25;117.75;;;;;-3.15;97.13;98685.81;6283359;20;3707895;-46
2022/01/09 08:54:17;;;;;;;;;110.67;84.33;;;;;-2.79;96.28;98688.44;6317316;20;3704415;-41
2022/01/09 08:56:48;;;;;;;;;160.25;126.50;;;;;-2.56;94.93;98685.28;6285313;20;4498115;-41
2022/01/09 08:59:19;;;;;;;;;103.33;75.00;;;;;-2.37;94.32;98683.03;6285143;20;3682526;-41
2022/01/09 09:01:49;;;;;;;;;100.67;77.33;;;;;-2.15;94.21;98684.22;6280231;20;3667306;-42
2022/01/09 09:04:20;;;;;;;;;96.67;71.67;;;;;-2.11;93.57;98685.84;6312995;20;3649443;-42
2022/01/09 09:06:49;;;;;;;;;91.67;69.33;;;;;-2.06;92.75;98681.34;6314798;20;2889896;-42
2022/01/09 09:09:19;;;;;;;;;88.00;67.00;;;;;-2.18;93.90;98671.16;6318079;20;3661796;-42
2022/01/09 09:11:50;;;;;;;;;87.00;67.67;;;;;-1.95;92.86;98682.81;6314243;20;2890943;-42
2022/01/09 09:14:24;;;;;;;;;90.67;64.00;;;;;-1.99;93.42;98682.91;6316358;20;3656738;-42
2022/01/09 09:16:54;;;;;;;;;87.33;60.67;;;;;-1.91;93.55;98684.47;6315551;20;3650273;-43
2022/01/09 09:19:24;;;;;;;;;91.00;68.67;;;;;-1.69;92.66;98696.09;6316059;20;2898199;-42
2022/01/09 09:21:53;;;;;;;;;90.00;66.33;;;;;-1.50;92.81;98683.31;6311314;20;3659688;-43
2022/01/09 09:24:23;;;;;;;;;88.33;63.33;;;;;-1.56;92.33;98679.06;6317936;20;2907761;-42
2022/01/09 09:26:53;;;;;;;;;85.67;64.67;;;;;-1.25;92.01;98669.41;6313304;20;3628527;-45
2022/01/09 09:29:22;;;;;;;;;79.00;61.00;;;;;-1.27;92.60;98671.22;6316208;20;2888809;-43
2022/01/09 09:31:51;;;;;;;;;83.67;65.00;;;;;-1.14;93.40;98673.44;6283461;20;3635753;-43
2022/01/09 09:34:21;;;;;;;;;76.67;58.67;;;;;-1.22;92.44;98662.28;6315530;20;2882661;-44
2022/01/09 09:36:51;;;;;;;;;72.00;57.50;;;;;-1.21;92.97;98660.50;6317021;20;2865855;-43
2022/01/09 09:39:21;;;;;;;;;83.67;65.00;;;;;-1.19;92.92;98664.81;6282927;20;2887906;-43
2022/01/09 09:41:51;;;;;;;;;83.33;60.33;;;;;-0.93;92.76;98655.25;6314858;20;3645009;-42
2022/01/09 09:44:21;;;;;;;;;83.33;60.33;;;;;-0.99;93.02;98661.56;6316758;20;3649394;-43
2022/01/09 09:46:53;;;;;;;;;80.33;60.33;;;;;-0.84;92.54;98665.50;6318427;20;3649305;-43
2022/01/09 09:49:22;;;;;;;;;69.00;54.50;;;;;-0.82;91.82;98674.19;6312427;20;2500238;-44
2022/01/09 09:51:50;;;;;;;;;66.00;54.00;;;;;-0.61;90.80;98677.06;6277191;20;2500381;-43
2022/01/09 09:54:18;;;;;;;;;77.50;57.50;;;;;-0.64;90.79;98677.16;6284732;20;2880553;-43
2022/01/09 09:56:47;;;;;;;;;74.00;57.00;;;;;-0.53;90.35;98675.03;6284015;20;2869118;-44
2022/01/09 09:59:29;;;;;;;;;71.00;53.00;;;;;-0.65;90.50;98673.66;6284181;20;2879508;-45
2022/01/09 10:01:57;;;;;;;;;65.50;53.00;;;;;-0.68;90.25;98679.91;6312161;20;2494047;-42
2022/01/09 10:04:27;;;;;;;;;79.00;60.00;;;;;-0.41;89.34;98673.78;6284221;20;2886934;-44
2022/01/09 10:06:56;;;;;;;;;79.00;60.33;;;;;-0.23;89.01;98668.72;6313468;20;2887856;-44
2022/01/09 10:09:26;;;;;;;;;76.00;59.00;;;;;-0.14;88.64;98669.31;6315910;20;2878415;-43
2022/01/09 10:12:03;;;;;;;;;75.50;57.50;;;;;-0.15;88.41;98670.25;6309905;20;2873404;-41
2022/01/09 10:14:34;;;;;;;;;78.33;61.67;;;;;-0.15;87.86;98676.38;6283553;20;3622208;-43
2022/01/09 10:17:21;;;;;;;;;73.33;54.00;;;;;0.05;87.27;98667.75;6313578;20;2882916;-43
2022/01/09 10:20:14;;;;;;;;;76.33;55.67;;;;;0.37;86.40;98673.66;6313537;20;2876322;-43
2022/01/09 10:22:50;;;;;;;;;85.33;63.33;;;;;0.21;85.93;98679.50;6314408;20;3651404;-43
2022/01/09 10:25:40;;;;;;;;;75.67;56.67;;;;;0.48;86.13;98675.94;6315067;20;2884719;-44
2022/01/09 10:28:20;;;;;;;;;88.33;63.67;;;;;0.57;85.78;98670.28;6313793;20;3652322;-43
2022/01/09 10:30:52;;;;;;;;;82.33;64.33;;;;;0.49;85.15;98669.72;6319184;20;3639892;-43
2022/01/09 10:33:30;;;;;;;;;82.67;59.67;;;;;0.60;85.79;98681.59;6320202;20;3645087;-44
2022/01/09 10:35:59;;;;;;;;;80.67;61.00;;;;;0.57;85.07;98687.00;6320622;20;3622106;-44
2022/01/09 10:38:29;;;;;;;;;66.50;52.50;;;;;0.40;84.26;98689.41;6321151;20;2867954;-43
2022/01/09 10:41:03;;;;;;;;;93.33;69.33;;;;;0.71;84.54;98688.25;6287975;20;3641922;-43
2022/01/09 10:43:40;;;;;;;;;74.67;57.00;;;;;0.70;84.16;98687.41;6321423;20;2872141;-43
2022/01/09 10:46:09;;;;;;;;;70.00;56.00;;;;;0.63;83.21;98689.41;6318549;20;2866905;-44
2022/01/09 10:48:44;;;;;;;;;86.00;62.67;;;;;0.61;82.74;98672.75;6312388;20;3657597;-44
2022/01/09 10:51:14;;;;;;;;;64.00;51.50;;;;;0.77;82.59;98674.81;6318549;20;2866522;-44
2022/01/09 10:53:45;;;;;;;;;80.00;63.00;;;;;0.66;82.94;98667.31;6288670;20;3633589;-43
2022/01/09 10:56:24;;;;;;;;;83.00;59.67;;;;;0.82;82.95;98665.81;6321809;20;3660612;-44
2022/01/09 10:58:57;;;;;;;;;88.00;67.67;;;;;0.89;82.00;98661.13;6319542;20;3633686;-44
2022/01/09 11:01:33;;;;;;;;;111.75;74.00;;;;;0.84;80.47;98661.31;6317301;20;3697109;-43
2022/01/09 11:04:07;;;;;;;;;64.00;53.00;;;;;0.95;77.73;98660.91;6286422;20;2865866;-44
2022/01/09 11:06:40;;;;;;;;;74.67;55.00;;;;;0.77;77.96;98651.06;6286008;20;3646188;-45
2022/01/09 11:09:10;;;;;;;;;92.67;68.67;;;;;0.96;78.83;98645.91;6318286;20;3657515;-43
2022/01/09 11:11:42;;;;;;;;;62.50;49.50;;;;;0.80;77.36;98640.38;6315271;20;2860649;-43